ěÝzenÝ letovÚho provozu ╚eskÚ republiky
Letiste: LKLN Aktualizace: 27.11.2021 23:51:28  UTC
 METAR LKLN 28.11. 00:00 ...
METAR LKLN 280000Z AUTO 24004KT 9999 BKN034 OVC200 02/M00 Q0996=